Time;durP1;ratioP1;P1;durP2;ratioP2;P2;SDS_P1;SDS_P2;PMS_P1;PMS_P2;Temp;Humidity;BMP_temperature;BMP_pressure;BME280_temperature;BME280_humidity;BME280_pressure;Samples;Min_cycle;Max_cycle;Signal;HPM_P1;HPM_P2
2022/03/17 00:00:58;;;;;;;142.05;36.60;;;;;;;;;;4960227;28;20102;-71
2022/03/17 00:03:25;;;;;;;128.18;37.47;;;;;;;;;;4976419;28;20055;-71
2022/03/17 00:05:51;;;;;;;138.98;38.08;;;;;;;;;;4975047;28;20053;-72
2022/03/17 00:08:19;;;;;;;136.85;40.97;;;;;;;;;;4981479;28;20133;-71
2022/03/17 00:10:45;;;;;;;110.22;36.75;;;;;;;;;;4961313;28;20085;-71
2022/03/17 00:13:19;;;;;;;118.75;36.25;;;;;;;;;;4977849;28;20350;-71
2022/03/17 00:15:45;;;;;;;153.80;42.72;;;;;;;;;;4975873;28;20133;-71
2022/03/17 00:18:12;;;;;;;129.73;39.30;;;;;;;;;;4976975;28;20133;-71
2022/03/17 00:20:39;;;;;;;148.38;40.90;;;;;;;;;;4977270;28;20485;-71
2022/03/17 00:23:06;;;;;;;;;;;;;;;;;;4981619;28;20426;-72
2022/03/17 00:25:39;;;;;;;144.02;38.60;;;;;;;;;;4978251;28;19972;-71
2022/03/17 00:28:05;;;;;;;134.90;37.47;;;;;;;;;;4976055;28;20141;-72
2022/03/17 00:30:32;;;;;;;146.18;39.10;;;;;;;;;;4975944;28;20329;-71
2022/03/17 00:32:59;;;;;;;164.65;40.80;;;;;;;;;;4974890;28;20046;-71
2022/03/17 00:35:42;;;;;;;159.63;41.10;;;;;;;;;;4976927;28;20160;-71
2022/03/17 00:38:10;;;;;;;278.63;45.15;;;;;;;;;;4976009;28;20046;-71
2022/03/17 00:40:41;;;;;;;178.52;42.47;;;;;;;;;;4976155;28;20136;-72
2022/03/17 00:43:08;;;;;;;172.70;42.10;;;;;;;;;;4975101;28;20054;-71
2022/03/17 00:45:35;;;;;;;169.98;41.55;;;;;;;;;;4977397;28;20125;-71
2022/03/17 00:48:02;;;;;;;183.80;41.40;;;;;;;;;;4975165;28;20050;-71
2022/03/17 00:50:28;;;;;;;218.70;43.72;;;;;;;;;;4974665;28;20192;-71
2022/03/17 00:52:55;;;;;;;182.25;42.35;;;;;;;;;;4974798;28;20051;-71
2022/03/17 00:55:22;;;;;;;175.55;40.13;;;;;;;;;;4975050;28;20050;-72
2022/03/17 00:57:49;;;;;;;138.77;33.40;;;;;;;;;;4976053;28;20133;-71
2022/03/17 01:00:16;;;;;;;289.27;45.67;;;;;;;;;;4975488;28;20937;-73
2022/03/17 01:02:44;;;;;;;249.48;43.97;;;;;;;;;;4976279;28;20105;-71
2022/03/17 01:05:11;;;;;;;179.98;39.22;;;;;;;;;;4975194;28;20759;-71
2022/03/17 01:07:38;;;;;;;208.45;43.03;;;;;;;;;;4975021;28;20056;-71
2022/03/17 01:10:05;;;;;;;269.02;43.88;;;;;;;;;;4973634;28;20068;-72
2022/03/17 01:12:32;;;;;;;232.75;41.58;;;;;;;;;;4958807;28;20050;-71
2022/03/17 01:14:59;;;;;;;152.80;29.43;;;;;;;;;;4972963;28;20086;-71
2022/03/17 01:17:26;;;;;;;238.82;42.08;;;;;;;;;;4977297;28;20385;-71
2022/03/17 01:19:53;;;;;;;375.63;44.25;;;;;;;;;;4977461;28;20047;-72
2022/03/17 01:22:21;;;;;;;285.60;44.10;;;;;;;;;;4978563;28;20161;-71
2022/03/17 01:24:49;;;;;;;319.17;45.55;;;;;;;;;;4978683;28;20086;-71
2022/03/17 01:27:19;;;;;;;232.55;43.88;;;;;;;;;;4979394;28;20591;-72
2022/03/17 01:29:53;;;;;;;206.32;41.40;;;;;;;;;;4984196;28;20125;-71
2022/03/17 01:32:21;;;;;;;196.57;40.67;;;;;;;;;;4983391;28;20142;-72
2022/03/17 01:34:47;;;;;;;174.93;37.45;;;;;;;;;;4979999;28;20366;-72
2022/03/17 01:37:16;;;;;;;166.82;39.40;;;;;;;;;;4978748;28;20577;-71
2022/03/17 01:39:42;;;;;;;155.57;39.05;;;;;;;;;;4979605;28;20075;-71
2022/03/17 01:42:10;;;;;;;156.57;37.78;;;;;;;;;;4979257;28;20051;-72
2022/03/17 01:44:39;;;;;;;188.73;40.05;;;;;;;;;;4977624;28;20145;-72
2022/03/17 01:49:51;;;;;;;162.15;36.75;;;;;;;;;;4978873;28;20058;-71
2022/03/17 01:52:17;;;;;;;192.73;42.75;;;;;;;;;;4978408;28;20050;-72
2022/03/17 01:54:44;;;;;;;138.82;37.45;;;;;;;;;;4980173;28;20137;-72
2022/03/17 01:57:11;;;;;;;185.80;41.13;;;;;;;;;;4979374;28;20596;-72
2022/03/17 01:59:39;;;;;;;216.60;45.63;;;;;;;;;;4982716;28;20090;-71
2022/03/17 02:02:09;;;;;;;164.82;40.53;;;;;;;;;;4980594;28;20096;-71
2022/03/17 02:04:43;;;;;;;130.23;37.08;;;;;;;;;;4978471;28;20164;-72
2022/03/17 02:07:11;;;;;;;176.20;39.67;;;;;;;;;;4977851;28;20066;-71
2022/03/17 02:09:38;;;;;;;188.18;40.13;;;;;;;;;;4976994;28;20054;-73
2022/03/17 02:15:00;;;;;;;176.57;40.00;;;;;;;;;;4981987;28;20047;-71
2022/03/17 02:17:30;;;;;;;183.38;42.10;;;;;;;;;;4961687;28;20078;-71
2022/03/17 02:19:58;;;;;;;155.15;40.13;;;;;;;;;;4956099;28;20078;-71
2022/03/17 02:22:25;;;;;;;146.50;36.40;;;;;;;;;;4943406;28;20153;-72
2022/03/17 02:27:39;;;;;;;155.35;40.47;;;;;;;;;;4956753;28;20134;-73
2022/03/17 02:30:06;;;;;;;128.48;38.33;;;;;;;;;;4955755;28;20181;-72
2022/03/17 02:32:32;;;;;;;155.05;41.33;;;;;;;;;;4965164;28;20047;-72
2022/03/17 02:35:02;;;;;;;131.20;40.10;;;;;;;;;;4972491;28;20058;-72
2022/03/17 02:37:35;;;;;;;117.75;37.72;;;;;;;;;;4964016;28;20074;-72
2022/03/17 02:40:04;;;;;;;137.75;40.03;;;;;;;;;;4959640;28;20055;-73
2022/03/17 02:42:31;;;;;;;116.65;38.70;;;;;;;;;;4956515;28;20043;-72
2022/03/17 02:45:00;;;;;;;123.80;37.80;;;;;;;;;;4955535;28;20526;-72
2022/03/17 02:47:26;;;;;;;95.68;28.83;;;;;;;;;;4957815;28;20078;-72
2022/03/17 02:49:55;;;;;;;96.82;31.50;;;;;;;;;;4954828;28;20134;-72
2022/03/17 02:52:26;;;;;;;133.98;40.95;;;;;;;;;;4962793;28;20090;-72
2022/03/17 02:54:53;;;;;;;114.18;38.85;;;;;;;;;;4962175;28;20129;-72
2022/03/17 02:57:20;;;;;;;116.38;38.38;;;;;;;;;;4965748;28;20691;-71
2022/03/17 02:59:54;;;;;;;128.77;38.10;;;;;;;;;;4958859;28;20400;-71
2022/03/17 03:02:20;;;;;;;137.98;40.63;;;;;;;;;;4959307;28;20129;-71
2022/03/17 03:04:47;;;;;;;99.57;34.80;;;;;;;;;;4957590;28;20043;-71
2022/03/17 03:07:16;;;;;;;111.20;36.72;;;;;;;;;;4957764;28;20133;-72
2022/03/17 03:09:42;;;;;;;124.88;39.13;;;;;;;;;;4958144;28;20145;-71
2022/03/17 03:12:09;;;;;;;105.00;38.00;;;;;;;;;;4955709;28;20082;-72
2022/03/17 03:14:36;;;;;;;122.70;39.08;;;;;;;;;;4959544;28;20130;-72
2022/03/17 03:17:03;;;;;;;114.80;38.90;;;;;;;;;;4964228;28;20451;-71
2022/03/17 03:19:30;;;;;;;115.18;40.33;;;;;;;;;;4961703;28;20874;-71
2022/03/17 03:21:57;;;;;;;118.63;40.55;;;;;;;;;;4952639;28;20129;-71
2022/03/17 03:24:23;;;;;;;123.07;40.50;;;;;;;;;;4950973;28;20086;-71
2022/03/17 03:26:51;;;;;;;115.90;40.08;;;;;;;;;;4954506;28;20142;-72
2022/03/17 03:29:23;;;;;;;109.10;38.28;;;;;;;;;;4952614;28;20578;-71
2022/03/17 03:31:50;;;;;;;108.03;38.38;;;;;;;;;;4953998;28;20149;-72
2022/03/17 03:34:17;;;;;;;123.63;40.75;;;;;;;;;;4954043;28;20075;-72
2022/03/17 03:39:29;;;;;;;109.47;38.80;;;;;;;;;;4952441;28;20062;-72
2022/03/17 03:41:56;;;;;;;121.13;39.70;;;;;;;;;;4952247;28;20555;-72
2022/03/17 03:44:23;;;;;;;121.13;39.03;;;;;;;;;;4955218;28;20255;-72
2022/03/17 03:46:50;;;;;;;121.25;40.25;;;;;;;;;;4953770;28;20051;-72
2022/03/17 03:49:17;;;;;;;124.17;41.57;;;;;;;;;;4952752;28;20590;-72
2022/03/17 03:51:43;;;;;;;119.75;41.35;;;;;;;;;;4951719;28;20366;-72
2022/03/17 03:54:18;;;;;;;121.35;40.90;;;;;;;;;;4951698;28;20134;-72
2022/03/17 03:56:47;;;;;;;123.22;42.38;;;;;;;;;;4959872;28;20126;-73
2022/03/17 03:59:19;;;;;;;117.72;40.28;;;;;;;;;;4957362;28;20370;-73
2022/03/17 04:01:47;;;;;;;122.07;42.67;;;;;;;;;;4965967;28;20418;-72
2022/03/17 04:04:20;;;;;;;;;;;;;;;;;;4969171;28;20042;-73
2022/03/17 04:06:53;;;;;;;111.38;38.58;;;;;;;;;;4953084;28;20363;-72
2022/03/17 04:09:26;;;;;;;121.50;38.30;;;;;;;;;;4949037;28;20142;-72
2022/03/17 04:11:53;;;;;;;137.35;41.00;;;;;;;;;;4957004;28;20133;-72
2022/03/17 04:14:19;;;;;;;126.28;41.70;;;;;;;;;;4961418;28;20082;-72
2022/03/17 04:16:48;;;;;;;116.65;40.15;;;;;;;;;;4975576;28;20101;-72
2022/03/17 04:19:15;;;;;;;130.23;42.03;;;;;;;;;;4978922;28;20141;-72
2022/03/17 04:21:43;;;;;;;128.27;44.85;;;;;;;;;;4975230;28;20577;-72
2022/03/17 04:24:10;;;;;;;106.60;38.38;;;;;;;;;;4976489;28;20088;-72
2022/03/17 04:26:37;;;;;;;90.00;32.00;;;;;;;;;;4975517;28;20272;-72
2022/03/17 04:29:03;;;;;;;125.80;41.47;;;;;;;;;;4980097;28;20085;-72
2022/03/17 04:31:30;;;;;;;101.40;34.35;;;;;;;;;;4981207;28;20101;-73
2022/03/17 04:33:56;;;;;;;128.88;44.97;;;;;;;;;;4978658;28;20130;-72
2022/03/17 04:36:23;;;;;;;126.75;42.67;;;;;;;;;;4978990;28;20138;-73
2022/03/17 04:38:52;;;;;;;123.53;43.63;;;;;;;;;;4974921;28;20139;-72
2022/03/17 04:41:18;;;;;;;136.73;43.87;;;;;;;;;;4976885;28;20325;-72
2022/03/17 04:43:45;;;;;;;140.93;44.70;;;;;;;;;;4974581;28;20820;-72
2022/03/17 04:46:12;;;;;;;133.65;43.05;;;;;;;;;;4976585;28;20550;-72
2022/03/17 04:48:39;;;;;;;129.55;44.80;;;;;;;;;;4976697;28;20772;-72
2022/03/17 04:51:06;;;;;;;135.38;46.03;;;;;;;;;;4976747;28;20136;-72
2022/03/17 04:53:33;;;;;;;142.48;45.50;;;;;;;;;;4975504;28;20074;-73
2022/03/17 04:56:01;;;;;;;110.20;34.50;;;;;;;;;;4975947;28;20153;-72
2022/03/17 04:58:28;;;;;;;146.25;43.63;;;;;;;;;;4977584;28;20126;-72
2022/03/17 05:01:03;;;;;;;146.13;46.13;;;;;;;;;;4976754;28;20093;-72
2022/03/17 05:03:30;;;;;;;134.60;46.72;;;;;;;;;;4982053;28;20050;-72
2022/03/17 05:05:56;;;;;;;118.25;36.75;;;;;;;;;;4980389;28;20046;-72
2022/03/17 05:08:33;;;;;;;151.60;47.63;;;;;;;;;;4970687;28;20133;-72
2022/03/17 05:11:00;;;;;;;144.40;45.28;;;;;;;;;;4977071;28;20603;-73
2022/03/17 05:13:27;;;;;;;131.50;45.15;;;;;;;;;;4979616;28;20082;-72
2022/03/17 05:16:00;;;;;;;136.88;45.97;;;;;;;;;;4973338;28;20114;-72
2022/03/17 05:18:29;;;;;;;148.55;49.50;;;;;;;;;;4960889;28;20134;-72
2022/03/17 05:20:55;;;;;;;150.95;49.75;;;;;;;;;;4960576;28;20082;-72
2022/03/17 05:23:22;;;;;;;139.18;48.90;;;;;;;;;;4962674;28;20554;-72
2022/03/17 05:25:49;;;;;;;147.98;48.97;;;;;;;;;;4962361;28;20086;-72
2022/03/17 05:28:16;;;;;;;144.30;50.40;;;;;;;;;;4960308;28;20416;-73
2022/03/17 05:30:44;;;;;;;161.40;54.13;;;;;;;;;;4960785;28;20231;-72
2022/03/17 05:33:17;;;;;;;156.82;51.05;;;;;;;;;;4958694;28;20047;-73
2022/03/17 05:35:44;;;;;;;157.17;53.00;;;;;;;;;;4960591;28;20051;-73
2022/03/17 05:38:11;;;;;;;160.87;53.30;;;;;;;;;;4960896;28;20086;-73
2022/03/17 05:40:45;;;;;;;155.77;53.38;;;;;;;;;;4957513;28;20394;-73
2022/03/17 05:43:12;;;;;;;167.13;55.90;;;;;;;;;;4963486;28;20098;-73
2022/03/17 05:45:39;;;;;;;168.35;56.30;;;;;;;;;;4955893;28;20097;-73
2022/03/17 05:48:06;;;;;;;169.13;51.83;;;;;;;;;;4958975;28;20049;-73
2022/03/17 05:50:34;;;;;;;97.93;34.63;;;;;;;;;;4958792;28;20090;-72
2022/03/17 05:53:00;;;;;;;158.15;53.30;;;;;;;;;;4953686;28;20079;-73
2022/03/17 05:55:30;;;;;;;175.10;59.65;;;;;;;;;;4961022;28;20097;-72
2022/03/17 05:57:57;;;;;;;195.53;59.43;;;;;;;;;;4956705;28;20075;-72
2022/03/17 06:00:24;;;;;;;189.82;63.00;;;;;;;;;;4956746;28;20090;-72
2022/03/17 06:02:53;;;;;;;209.10;64.60;;;;;;;;;;4959483;28;20067;-73
2022/03/17 06:05:20;;;;;;;175.55;63.78;;;;;;;;;;4960104;28;20158;-72
2022/03/17 06:07:48;;;;;;;206.73;67.50;;;;;;;;;;4955123;28;20174;-72
2022/03/17 06:10:21;;;;;;;198.25;66.38;;;;;;;;;;4955026;28;20078;-72
2022/03/17 06:12:51;;;;;;;206.05;68.45;;;;;;;;;;4956499;28;20500;-73
2022/03/17 06:15:18;;;;;;;188.27;65.78;;;;;;;;;;4959090;28;20150;-72
2022/03/17 06:17:49;;;;;;;192.82;66.35;;;;;;;;;;4974931;28;20105;-73
2022/03/17 06:20:17;;;;;;;191.98;65.70;;;;;;;;;;4975843;28;20053;-72
2022/03/17 06:22:49;;;;;;;220.68;66.68;;;;;;;;;;4976869;28;20117;-72
2022/03/17 06:25:16;;;;;;;200.68;63.92;;;;;;;;;;4978520;28;20556;-72
2022/03/17 06:27:43;;;;;;;;;;;;;;;;;;4977254;28;20077;-72
2022/03/17 06:30:12;;;;;;;175.82;54.92;;;;;;;;;;4976125;28;19926;-72
2022/03/17 06:32:39;;;;;;;198.23;64.55;;;;;;;;;;4977496;28;20142;-72
2022/03/17 06:35:10;;;;;;;200.98;67.78;;;;;;;;;;4976952;28;20098;-72
2022/03/17 06:37:37;;;;;;;203.50;65.68;;;;;;;;;;4976655;28;20137;-72
2022/03/17 06:40:07;;;;;;;200.48;67.72;;;;;;;;;;4983100;28;20054;-72
2022/03/17 06:42:34;;;;;;;221.13;68.30;;;;;;;;;;4978509;28;20134;-72
2022/03/17 06:45:01;;;;;;;193.10;63.17;;;;;;;;;;4979440;28;20054;-73
2022/03/17 06:47:28;;;;;;;194.90;59.95;;;;;;;;;;4975338;28;20156;-72
2022/03/17 06:49:54;;;;;;;217.02;65.55;;;;;;;;;;4976246;28;20573;-72
2022/03/17 06:52:22;;;;;;;209.55;67.47;;;;;;;;;;4973981;28;20089;-72
2022/03/17 06:54:48;;;;;;;;;;;;;;;;;;4976318;28;20271;-72
2022/03/17 06:57:19;;;;;;;179.45;56.20;;;;;;;;;;4974397;28;19997;-72
2022/03/17 06:59:46;;;;;;;198.05;61.05;;;;;;;;;;4977803;28;20074;-72
2022/03/17 07:02:13;;;;;;;180.73;57.75;;;;;;;;;;4976230;28;20153;-72
2022/03/17 07:04:40;;;;;;;167.13;56.33;;;;;;;;;;4976251;28;20051;-72
2022/03/17 07:07:09;;;;;;;178.85;57.08;;;;;;;;;;4980420;28;20085;-72
2022/03/17 07:09:36;;;;;;;159.15;54.00;;;;;;;;;;4982204;28;20129;-73
2022/03/17 07:12:02;;;;;;;154.68;54.55;;;;;;;;;;4975325;28;20136;-73
2022/03/17 07:14:29;;;;;;;124.05;40.95;;;;;;;;;;4976097;28;20118;-73
2022/03/17 07:16:56;;;;;;;153.55;53.78;;;;;;;;;;4976280;28;20165;-72
2022/03/17 07:19:23;;;;;;;176.25;60.60;;;;;;;;;;4981572;28;20525;-72
2022/03/17 07:21:51;;;;;;;178.40;63.20;;;;;;;;;;4981336;28;20145;-72
2022/03/17 07:24:18;;;;;;;191.70;69.10;;;;;;;;;;4979123;28;20150;-72
2022/03/17 07:26:45;;;;;;;191.27;68.47;;;;;;;;;;4981586;28;20133;-73
2022/03/17 07:29:11;;;;;;;189.52;69.25;;;;;;;;;;4981216;28;20145;-73
2022/03/17 07:31:38;;;;;;;197.07;68.47;;;;;;;;;;4981528;28;20082;-72
2022/03/17 07:34:12;;;;;;;188.30;66.97;;;;;;;;;;4978869;28;20077;-73
2022/03/17 07:36:40;;;;;;;144.98;51.22;;;;;;;;;;4977879;28;20078;-72
2022/03/17 07:39:06;;;;;;;188.90;66.88;;;;;;;;;;4979884;28;20078;-72
2022/03/17 07:41:33;;;;;;;189.38;66.00;;;;;;;;;;4979217;28;20145;-72
2022/03/17 07:44:00;;;;;;;171.27;64.78;;;;;;;;;;4972098;28;20154;-72
2022/03/17 07:46:27;;;;;;;174.32;61.35;;;;;;;;;;4960197;28;20136;-72
2022/03/17 07:48:53;;;;;;;157.70;57.27;;;;;;;;;;4980926;28;20524;-72
2022/03/17 07:51:20;;;;;;;165.27;59.72;;;;;;;;;;4975285;28;20373;-72
2022/03/17 07:53:46;;;;;;;151.80;59.10;;;;;;;;;;4980451;28;20114;-72
2022/03/17 07:56:20;;;;;;;164.82;61.45;;;;;;;;;;4979654;28;20355;-72
2022/03/17 07:58:47;;;;;;;164.60;61.92;;;;;;;;;;4980843;28;20066;-71
2022/03/17 08:01:14;;;;;;;170.63;62.35;;;;;;;;;;4980516;28;20069;-71
2022/03/17 08:03:41;;;;;;;155.02;62.20;;;;;;;;;;4979096;28;20078;-72
2022/03/17 08:06:07;;;;;;;119.07;46.30;;;;;;;;;;4981553;28;20062;-71
2022/03/17 08:08:34;;;;;;;147.70;59.03;;;;;;;;;;4977138;28;20954;-71
2022/03/17 08:11:01;;;;;;;141.52;57.17;;;;;;;;;;4979163;28;20710;-71
2022/03/17 08:13:28;;;;;;;132.25;55.13;;;;;;;;;;4978696;28;20046;-72
2022/03/17 08:15:54;;;;;;;150.10;59.70;;;;;;;;;;4978648;28;20526;-71
2022/03/17 08:18:21;;;;;;;148.00;59.33;;;;;;;;;;4973664;28;20057;-71
2022/03/17 08:20:48;;;;;;;140.17;55.10;;;;;;;;;;4974072;28;20054;-72
2022/03/17 08:23:21;;;;;;;140.85;56.45;;;;;;;;;;4972315;28;20305;-72
2022/03/17 08:25:49;;;;;;;126.63;53.97;;;;;;;;;;4973397;28;20050;-72
2022/03/17 08:28:17;;;;;;;133.35;55.63;;;;;;;;;;4978618;28;20050;-71
2022/03/17 08:30:46;;;;;;;138.43;58.47;;;;;;;;;;4979628;28;20115;-72
2022/03/17 08:33:17;;;;;;;125.25;55.80;;;;;;;;;;4983000;28;20050;-71
2022/03/17 08:35:43;;;;;;;;;;;;;;;;;;4982883;28;20089;-71
2022/03/17 08:38:10;;;;;;;116.00;49.53;;;;;;;;;;4976798;28;20347;-71
2022/03/17 08:40:38;;;;;;;124.35;52.38;;;;;;;;;;4979924;28;20566;-71
2022/03/17 08:43:06;;;;;;;115.03;50.20;;;;;;;;;;4976748;28;20736;-71
2022/03/17 08:51:02;;;;;;;105.15;44.95;;;;;;;;;;4973044;28;20082;-71
2022/03/17 08:53:29;;;;;;;93.57;44.03;;;;;;;;;;4972789;28;20132;-71
2022/03/17 08:55:56;;;;;;;80.68;39.88;;;;;;;;;;4973531;28;21609;-70
2022/03/17 08:58:23;;;;;;;65.20;31.93;;;;;;;;;;4974895;28;20050;-71
2022/03/17 09:00:49;;;;;;;71.97;34.20;;;;;;;;;;4972083;28;20169;-71
2022/03/17 09:03:16;;;;;;;62.88;29.70;;;;;;;;;;4971303;28;20054;-71
2022/03/17 09:05:42;;;;;;;61.15;34.50;;;;;;;;;;4972732;28;20050;-71
2022/03/17 09:08:10;;;;;;;62.33;33.15;;;;;;;;;;4971069;28;20498;-71
2022/03/17 09:10:38;;;;;;;54.72;29.70;;;;;;;;;;4970523;28;20142;-71
2022/03/17 09:13:07;;;;;;;55.85;30.80;;;;;;;;;;4972538;28;20433;-71
2022/03/17 09:15:36;;;;;;;50.75;28.20;;;;;;;;;;4974732;28;20510;-71
2022/03/17 09:18:02;;;;;;;54.83;27.95;;;;;;;;;;4959693;28;20074;-71
2022/03/17 09:20:29;;;;;;;53.03;31.88;;;;;;;;;;4951453;28;20135;-71
2022/03/17 09:22:56;;;;;;;54.40;32.70;;;;;;;;;;4959130;28;20122;-71
2022/03/17 09:25:25;;;;;;;47.70;24.77;;;;;;;;;;4960996;28;20074;-71
2022/03/17 09:27:52;;;;;;;52.65;27.73;;;;;;;;;;4957154;28;20109;-71
2022/03/17 09:30:26;;;;;;;43.97;24.52;;;;;;;;;;4958664;28;20490;-70
2022/03/17 09:32:54;;;;;;;44.83;25.00;;;;;;;;;;4956484;28;20138;-71
2022/03/17 09:35:21;;;;;;;57.13;31.88;;;;;;;;;;4962352;28;20083;-71
2022/03/17 09:37:54;;;;;;;52.80;30.02;;;;;;;;;;4960157;28;20106;-71
2022/03/17 09:40:21;;;;;;;48.78;25.45;;;;;;;;;;4960261;28;20085;-71
2022/03/17 09:42:48;;;;;;;50.38;20.35;;;;;;;;;;4956420;28;20058;-71
2022/03/17 09:45:15;;;;;;;55.65;29.13;;;;;;;;;;4955866;28;20118;-71
2022/03/17 09:47:42;;;;;;;50.45;25.90;;;;;;;;;;4954651;28;20114;-71
2022/03/17 09:50:10;;;;;;;51.17;31.73;;;;;;;;;;4953465;28;20485;-72
2022/03/17 09:52:38;;;;;;;61.40;30.85;;;;;;;;;;4957531;28;20054;-71
2022/03/17 09:55:06;;;;;;;53.80;29.60;;;;;;;;;;4956946;28;20182;-70
2022/03/17 09:57:32;;;;;;;55.65;31.13;;;;;;;;;;4956184;28;20137;-71
2022/03/17 10:00:03;;;;;;;55.00;31.45;;;;;;;;;;4955986;28;20154;-71
2022/03/17 10:02:30;;;;;;;53.90;31.23;;;;;;;;;;4956513;28;20129;-71
2022/03/17 10:04:58;;;;;;;50.88;31.13;;;;;;;;;;4952778;28;20146;-71
2022/03/17 10:07:25;;;;;;;;;;;;;;;;;;4954969;28;20051;-71
2022/03/17 10:09:51;;;;;;;51.65;28.25;;;;;;;;;;4956210;28;19965;-71
2022/03/17 10:12:22;;;;;;;53.97;28.92;;;;;;;;;;4956592;28;20235;-70
2022/03/17 10:14:50;;;;;;;52.58;29.75;;;;;;;;;;4963520;28;20514;-70
2022/03/17 10:17:34;;;;;;;56.47;30.23;;;;;;;;;;4976735;28;20101;-71
2022/03/17 10:20:35;;;;;;;51.13;25.70;;;;;;;;;;4982844;28;20055;-71
2022/03/17 10:23:02;;;;;;;50.65;29.17;;;;;;;;;;4980562;28;20105;-71
2022/03/17 10:25:32;;;;;;;;;;;;;;;;;;4982356;28;20082;-70
2022/03/17 10:27:59;;;;;;;51.42;27.40;;;;;;;;;;4977967;28;19977;-71
2022/03/17 10:30:34;;;;;;;39.17;20.30;;;;;;;;;;4977949;28;20122;-72
2022/03/17 10:33:06;;;;;;;50.08;31.20;;;;;;;;;;4977489;28;20082;-71
2022/03/17 10:35:36;;;;;;;53.90;30.70;;;;;;;;;;4979463;28;20054;-71
2022/03/17 10:38:12;;;;;;;56.33;30.20;;;;;;;;;;4977222;28;20054;-71
2022/03/17 10:40:39;;;;;;;48.05;28.23;;;;;;;;;;4977060;28;20078;-71
2022/03/17 10:43:13;;;;;;;49.03;27.13;;;;;;;;;;4976356;28;20129;-71
2022/03/17 10:45:40;;;;;;;49.03;26.42;;;;;;;;;;4982594;28;20454;-71
2022/03/17 10:48:07;;;;;;;42.28;23.92;;;;;;;;;;4981922;28;20090;-71
2022/03/17 10:50:38;;;;;;;39.60;22.50;;;;;;;;;;4978743;28;20074;-71
2022/03/17 10:53:04;;;;;;;45.13;26.52;;;;;;;;;;4976259;28;20137;-71
2022/03/17 10:55:33;;;;;;;44.17;25.17;;;;;;;;;;4977639;28;20056;-71
2022/03/17 10:57:59;;;;;;;;;;;;;;;;;;4978715;28;20121;-71
2022/03/17 11:00:27;;;;;;;43.00;23.45;;;;;;;;;;4976017;28;19926;-71
2022/03/17 11:02:57;;;;;;;45.60;23.73;;;;;;;;;;4977531;28;20157;-71
2022/03/17 11:05:27;;;;;;;44.78;23.80;;;;;;;;;;4978398;28;20042;-70
2022/03/17 11:07:55;;;;;;;42.78;25.90;;;;;;;;;;4974911;28;20257;-71
2022/03/17 11:10:22;;;;;;;45.75;25.92;;;;;;;;;;4977609;28;20050;-70
2022/03/17 11:12:51;;;;;;;42.90;25.75;;;;;;;;;;4979828;28;20058;-70
2022/03/17 11:15:25;;;;;;;39.63;20.67;;;;;;;;;;4964100;28;20165;-70
2022/03/17 11:17:52;;;;;;;38.78;24.48;;;;;;;;;;4981093;28;20100;-70
2022/03/17 11:20:22;;;;;;;43.58;25.25;;;;;;;;;;4978724;28;20831;-70
2022/03/17 11:23:05;;;;;;;43.28;23.35;;;;;;;;;;4981809;28;20129;-70
2022/03/17 11:25:35;;;;;;;39.00;23.05;;;;;;;;;;4980077;28;20042;-70
2022/03/17 11:28:03;;;;;;;35.53;21.40;;;;;;;;;;4978389;28;20093;-70
2022/03/17 11:30:42;;;;;;;38.42;24.23;;;;;;;;;;4981585;28;20077;-70
2022/03/17 11:33:21;;;;;;;40.38;23.17;;;;;;;;;;4966919;28;20133;-70
2022/03/17 11:35:59;;;;;;;37.53;22.92;;;;;;;;;;4983146;28;20094;-70
2022/03/17 11:38:30;;;;;;;36.95;23.45;;;;;;;;;;4979334;28;20955;-71
2022/03/17 11:41:13;;;;;;;42.10;23.13;;;;;;;;;;4982541;28;20078;-70
2022/03/17 11:43:46;;;;;;;31.35;17.58;;;;;;;;;;4980694;28;20086;-70
2022/03/17 11:46:16;;;;;;;37.78;19.40;;;;;;;;;;4979484;28;20506;-70
2022/03/17 11:48:45;;;;;;;37.22;21.10;;;;;;;;;;4976484;28;20058;-70
2022/03/17 11:51:15;;;;;;;33.05;14.80;;;;;;;;;;4977647;28;20081;-70
2022/03/17 11:53:51;;;;;;;36.92;22.55;;;;;;;;;;4977226;28;20572;-70
2022/03/17 11:56:35;;;;;;;34.08;20.92;;;;;;;;;;4981296;28;20055;-70
2022/03/17 11:59:01;;;;;;;36.00;21.80;;;;;;;;;;4978394;28;20059;-70
2022/03/17 12:01:31;;;;;;;34.33;20.80;;;;;;;;;;4980775;28;20471;-70
2022/03/17 12:03:58;;;;;;;39.03;22.48;;;;;;;;;;4979135;28;20138;-70
2022/03/17 12:06:28;;;;;;;37.50;22.75;;;;;;;;;;4978134;28;20071;-70
2022/03/17 12:08:59;;;;;;;35.90;17.40;;;;;;;;;;4978229;28;20047;-70
2022/03/17 12:11:27;;;;;;;37.78;22.42;;;;;;;;;;4976280;28;20061;-70
2022/03/17 12:14:14;;;;;;;39.53;23.77;;;;;;;;;;4978529;28;20050;-70
2022/03/17 12:16:42;;;;;;;37.53;23.45;;;;;;;;;;4953763;28;20063;-70
2022/03/17 12:19:08;;;;;;;36.65;22.13;;;;;;;;;;4956927;28;20094;-70
2022/03/17 12:21:53;;;;;;;36.38;22.98;;;;;;;;;;4951369;28;20129;-70
2022/03/17 12:24:33;;;;;;;43.97;25.95;;;;;;;;;;4963262;28;20422;-70
2022/03/17 12:27:04;;;;;;;36.80;20.00;;;;;;;;;;4953889;28;20487;-70
2022/03/17 12:29:31;;;;;;;42.42;25.42;;;;;;;;;;4951823;28;20145;-70
2022/03/17 12:32:04;;;;;;;40.65;24.90;;;;;;;;;;4954193;28;20043;-70
2022/03/17 12:34:32;;;;;;;47.30;27.38;;;;;;;;;;4952636;28;20055;-70
2022/03/17 12:36:59;;;;;;;45.17;27.77;;;;;;;;;;4953322;28;20842;-70
2022/03/17 12:39:35;;;;;;;47.25;25.08;;;;;;;;;;4960795;28;20059;-70
2022/03/17 12:42:15;;;;;;;42.72;22.55;;;;;;;;;;4958703;28;20133;-70
2022/03/17 12:44:55;;;;;;;48.28;29.23;;;;;;;;;;4952009;28;20141;-70
2022/03/17 12:47:30;;;;;;;46.55;26.15;;;;;;;;;;4951489;28;20660;-70
2022/03/17 12:49:57;;;;;;;53.40;30.90;;;;;;;;;;4952595;28;20047;-70
2022/03/17 12:52:25;;;;;;;50.65;29.75;;;;;;;;;;4953567;28;20178;-70
2022/03/17 12:54:55;;;;;;;54.55;30.35;;;;;;;;;;4952025;28;20133;-71
2022/03/17 12:57:26;;;;;;;56.05;33.00;;;;;;;;;;4954034;28;20078;-70
2022/03/17 12:59:52;;;;;;;55.05;30.95;;;;;;;;;;4951486;28;20141;-70
2022/03/17 13:02:20;;;;;;;54.22;31.35;;;;;;;;;;4953967;28;20138;-71
2022/03/17 13:04:49;;;;;;;62.60;32.75;;;;;;;;;;4962332;28;20158;-70
2022/03/17 13:07:17;;;;;;;59.22;32.75;;;;;;;;;;4959366;28;20177;-70
2022/03/17 13:09:44;;;;;;;58.72;34.72;;;;;;;;;;4954105;28;20103;-70
2022/03/17 13:15:04;;;;;;;54.05;30.90;;;;;;;;;;4952745;28;20133;-70
2022/03/17 13:17:31;;;;;;;58.15;33.78;;;;;;;;;;4957906;28;20042;-70
2022/03/17 13:19:58;;;;;;;60.85;32.25;;;;;;;;;;4957867;28;20178;-70
2022/03/17 13:22:25;;;;;;;57.08;33.28;;;;;;;;;;4957977;28;20125;-70
2022/03/17 13:25:08;;;;;;;60.42;36.65;;;;;;;;;;4957868;28;20134;-70
2022/03/17 13:27:35;;;;;;;71.15;39.08;;;;;;;;;;4958142;28;20053;-70
2022/03/17 13:30:06;;;;;;;60.42;37.30;;;;;;;;;;4952529;28;20150;-70
2022/03/17 13:32:32;;;;;;;59.95;31.73;;;;;;;;;;4967151;28;20603;-70
2022/03/17 13:35:07;;;;;;;61.63;37.50;;;;;;;;;;4960942;28;20082;-68
2022/03/17 13:37:34;;;;;;;75.57;43.45;;;;;;;;;;4954832;28;20141;-70
2022/03/17 13:40:05;;;;;;;64.28;39.33;;;;;;;;;;4958669;28;20082;-70
2022/03/17 13:42:33;;;;;;;66.68;39.78;;;;;;;;;;4956409;28;20582;-70
2022/03/17 13:45:00;;;;;;;68.15;38.42;;;;;;;;;;4938806;28;20426;-70
2022/03/17 13:47:58;;;;;;;70.13;37.63;;;;;;;;;;4968185;28;20046;-70
2022/03/17 13:50:28;;;;;;;68.88;39.70;;;;;;;;;;4967197;28;20057;-70
2022/03/17 13:53:06;;;;;;;69.70;39.60;;;;;;;;;;4962257;28;20117;-70
2022/03/17 13:55:35;;;;;;;65.10;38.80;;;;;;;;;;4957477;28;20739;-70
2022/03/17 13:58:08;;;;;;;67.88;39.80;;;;;;;;;;4959345;28;20113;-70
2022/03/17 14:00:35;;;;;;;65.80;39.50;;;;;;;;;;4967073;28;20145;-70
2022/03/17 14:03:19;;;;;;;70.80;39.97;;;;;;;;;;4968216;28;20086;-70
2022/03/17 14:05:59;;;;;;;73.45;39.00;;;;;;;;;;4969005;28;20097;-70
2022/03/17 14:08:26;;;;;;;67.68;41.35;;;;;;;;;;4967659;28;20086;-70
2022/03/17 14:11:03;;;;;;;68.43;40.10;;;;;;;;;;4969401;28;20090;-71
2022/03/17 14:13:30;;;;;;;71.90;41.63;;;;;;;;;;4969217;28;20117;-70
2022/03/17 14:15:56;;;;;;;69.75;38.88;;;;;;;;;;4970829;28;20145;-70
2022/03/17 14:18:23;;;;;;;72.33;31.00;;;;;;;;;;4976055;28;20652;-70
2022/03/17 14:20:49;;;;;;;70.07;39.33;;;;;;;;;;4977423;28;20169;-70
2022/03/17 14:26:08;;;;;;;60.85;33.92;;;;;;;;;;4977856;28;20087;-70
2022/03/17 14:28:34;;;;;;;72.30;42.42;;;;;;;;;;4978762;28;20086;-70
2022/03/17 14:31:01;;;;;;;73.13;39.28;;;;;;;;;;4983218;28;20082;-70
2022/03/17 14:33:29;;;;;;;57.42;31.52;;;;;;;;;;4981266;28;20050;-70
2022/03/17 14:35:56;;;;;;;73.43;39.03;;;;;;;;;;4979911;28;20090;-71
2022/03/17 14:38:22;;;;;;;68.93;39.87;;;;;;;;;;4981795;28;20610;-70
2022/03/17 14:40:49;;;;;;;73.03;39.65;;;;;;;;;;4981985;28;20133;-70
2022/03/17 14:43:16;;;;;;;76.07;44.22;;;;;;;;;;4981778;28;20498;-70
2022/03/17 14:45:42;;;;;;;75.47;41.33;;;;;;;;;;4980277;28;20081;-70